Glenpool, Oklahoma
Current Conditions -  °F | °C
As of 11:53 AM on Saturday 20 Dec 2014 (Local Time) from KRVS Reporting Station
Overcast Overcast  
Wind Chill: 40°   Ceiling: 2300
Heat Index: 44°   Visibility: 10mi
Dew Point: 35°   Wind: 8mph
Humidity: 71%   Direction: 210°SSW
Pressure: 30.24"   Gusts: NA
Location:  35.95°N, 96.01°W
Report Text: KRVS 201753Z 21007KT 10SM OVC023 07/02 A3024 RMK AO2 SLP247 T00670017 10067 20039 58003
Loading
Personal Weather Stations






























Interactive Weather Map New forecast layout! Learn more

10-Day Weather Forecast

Advertisements
Track Severe Weather on mobile